KLRJ/LRJ METAR and TAF weather

Enter ICAO airport designator
Station Type Date Time Source
KLRJ METAR 2022/01/26 07:55 UTC NOAA

KLRJ 260755Z AUTO 20004KT 10SM CLR M22/M24 A3041 RMK AO2


Station Type Date Time Source
KLRJ Decoded METAR 2022/01/26 07:55 UTC NOAA

Le Mars, Le Mars Municipal Airport, IA, United States (KLRJ) 42-46-41N 096-11-37W
Jan 26, 2022 - 02:55 AM EST / 2022.01.26 0755 UTC
Wind: from the SSW (200 degrees) at 5 MPH (4 KT):0
Visibility: 10 mile(s):0
Sky conditions: clear
Temperature: -7 F (-22 C)
Windchill: -18 F (-28 C):2
Dew Point: -11 F (-24 C)
Relative Humidity: 83%
Pressure (altimeter): 30.41 in. Hg (1029 hPa)
ob: KLRJ 260755Z AUTO 20004KT 10SM CLR M22/M24 A3041 RMK AO2
cycle: 8

Station Type Date Time Source
KLRJ TAF UTC NOAA

Error!

Example: see airport list